createdAt,value
2019-06-01T00:00:32.625Z,4.80
2019-06-01T00:03:01.831Z,3.97
2019-06-01T00:05:42.564Z,4.50
2019-06-01T00:08:11.921Z,4.33
2019-06-01T00:10:41.148Z,3.53
2019-06-01T00:13:10.470Z,3.70
2019-06-01T00:15:39.921Z,4.03
2019-06-01T00:18:09.305Z,3.97
2019-06-01T00:20:38.591Z,3.83
2019-06-01T00:23:08.027Z,4.53
2019-06-01T00:26:24.171Z,5.63
2019-06-01T00:28:53.505Z,3.43
2019-06-01T00:31:22.672Z,3.67
2019-06-01T00:33:51.883Z,3.43
2019-06-01T00:36:21.211Z,3.73
2019-06-01T00:38:50.467Z,3.87
2019-06-01T00:41:19.782Z,3.53
2019-06-01T00:43:50.380Z,3.70
2019-06-01T00:46:19.806Z,3.90
2019-06-01T00:48:49.985Z,3.30
2019-06-01T00:51:19.295Z,3.40
2019-06-01T00:53:49.606Z,3.27
2019-06-01T00:56:19.059Z,3.50
2019-06-01T00:58:48.284Z,2.90
2019-06-01T01:01:17.446Z,3.17
2019-06-01T01:03:48.183Z,2.97
2019-06-01T01:06:17.621Z,3.60
2019-06-01T01:08:47.068Z,3.47
2019-06-01T01:11:16.550Z,3.60
2019-06-01T01:13:47.111Z,3.57
2019-06-01T01:16:16.556Z,3.43
2019-06-01T01:18:45.759Z,3.50
2019-06-01T01:21:15.085Z,3.50
2019-06-01T01:23:44.329Z,3.13
2019-06-01T01:26:13.545Z,2.67
2019-06-01T01:28:42.716Z,3.47
2019-06-01T01:31:14.083Z,3.00
2019-06-01T01:33:42.981Z,3.00
2019-06-01T01:36:12.208Z,3.13
2019-06-01T01:38:41.484Z,2.73
2019-06-01T01:41:10.759Z,3.07
2019-06-01T01:43:39.954Z,3.13
2019-06-01T01:46:09.151Z,3.47
2019-06-01T01:48:38.688Z,3.90
2019-06-01T01:51:08.004Z,3.40
2019-06-01T01:53:37.157Z,2.70
2019-06-01T01:56:06.495Z,3.73
2019-06-01T01:58:35.813Z,3.40
2019-06-01T02:01:21.519Z,4.00
2019-06-01T02:03:36.158Z,3.90
2019-06-01T02:06:05.444Z,3.60
2019-06-01T02:08:34.628Z,3.17
2019-06-01T02:11:03.952Z,3.60
2019-06-01T02:13:42.353Z,3.10
2019-06-01T02:16:13.711Z,3.00
2019-06-01T02:18:43.019Z,3.27
2019-06-01T02:21:12.572Z,3.10
2019-06-01T02:23:41.785Z,3.00
2019-06-01T02:26:11.046Z,3.27
2019-06-01T02:28:40.300Z,3.47
2019-06-01T02:31:09.596Z,3.17
2019-06-01T02:33:38.811Z,3.60
2019-06-01T02:36:07.984Z,2.97
2019-06-01T02:38:37.268Z,3.27
2019-06-01T02:41:06.734Z,3.20
2019-06-01T02:43:35.950Z,3.00
2019-06-01T02:46:07.490Z,3.03
2019-06-01T02:48:36.141Z,3.63
2019-06-01T02:51:05.562Z,3.53
2019-06-01T02:53:35.004Z,3.10
2019-06-01T02:56:04.353Z,4.50
2019-06-01T02:58:33.867Z,3.60
2019-06-01T03:01:35.424Z,3.10
2019-06-01T03:04:08.066Z,3.27
2019-06-01T03:06:39.842Z,3.40
2019-06-01T03:09:10.565Z,3.37
2019-06-01T03:11:41.089Z,3.30
2019-06-01T03:14:12.435Z,3.80
2019-06-01T03:16:42.948Z,3.17
2019-06-01T03:19:13.853Z,3.10
2019-06-01T03:21:47.209Z,3.33
2019-06-01T03:24:16.593Z,3.17
2019-06-01T03:26:46.969Z,3.43
2019-06-01T03:29:25.422Z,3.30
2019-06-01T03:31:54.687Z,3.43
2019-06-01T03:34:23.939Z,3.30
2019-06-01T03:36:56.121Z,3.30
2019-06-01T03:39:24.302Z,3.50
2019-06-01T03:41:53.678Z,3.63
2019-06-01T03:44:22.811Z,3.23
2019-06-01T03:46:52.054Z,3.00
2019-06-01T03:49:21.304Z,3.30
2019-06-01T03:51:50.497Z,3.43
2019-06-01T03:54:19.818Z,3.87
2019-06-01T03:56:49.239Z,3.73
2019-06-01T03:59:18.603Z,3.47
2019-06-01T04:01:48.066Z,3.37
2019-06-01T04:04:17.336Z,3.70
2019-06-01T04:06:46.619Z,4.17
2019-06-01T04:09:15.844Z,4.40
2019-06-01T04:11:45.148Z,3.73
2019-06-01T04:14:14.354Z,3.90
2019-06-01T04:16:43.846Z,4.20
2019-06-01T04:19:13.218Z,4.03
2019-06-01T04:21:42.529Z,4.37
2019-06-01T04:24:12.362Z,4.40
2019-06-01T04:26:41.970Z,4.40
2019-06-01T04:29:12.407Z,3.97
2019-06-01T04:31:41.752Z,3.60
2019-06-01T04:34:11.097Z,3.60
2019-06-01T04:36:40.453Z,3.47
2019-06-01T04:39:09.688Z,4.60
2019-06-01T04:41:38.953Z,3.80
2019-06-01T04:44:08.288Z,3.70
2019-06-01T04:46:37.463Z,3.70
2019-06-01T04:49:06.765Z,3.40
2019-06-01T04:51:36.149Z,3.63
2019-06-01T04:54:06.737Z,3.30
2019-06-01T04:56:36.147Z,4.17
2019-06-01T04:59:06.727Z,3.50
2019-06-01T05:01:36.197Z,3.27
2019-06-01T05:04:07.008Z,3.90
2019-06-01T05:06:36.469Z,4.40
2019-06-01T05:09:09.163Z,4.07
2019-06-01T05:11:38.684Z,4.40
2019-06-01T05:14:08.053Z,3.83
2019-06-01T05:16:37.508Z,3.60
2019-06-01T05:19:07.986Z,3.50
2019-06-01T05:21:37.514Z,4.00
2019-06-01T05:24:08.836Z,3.60
2019-06-01T05:26:38.289Z,4.03
2019-06-01T05:29:07.516Z,4.10
2019-06-01T05:31:36.790Z,4.47
2019-06-01T05:34:06.053Z,4.47
2019-06-01T05:36:35.253Z,5.73
2019-06-01T05:39:08.327Z,3.97
2019-06-01T05:41:37.646Z,5.40
2019-06-01T05:44:06.959Z,4.97
2019-06-01T05:46:36.264Z,5.50
2019-06-01T05:49:05.545Z,5.00
2019-06-01T05:51:34.737Z,4.80
2019-06-01T05:54:04.071Z,4.80
2019-06-01T05:56:33.234Z,4.37
2019-06-01T05:59:03.456Z,4.67
2019-06-01T06:01:32.672Z,4.60
2019-06-01T06:04:01.866Z,5.00
2019-06-01T06:06:31.193Z,4.30
2019-06-01T06:09:00.465Z,4.60
2019-06-01T06:11:29.793Z,4.10
2019-06-01T06:14:00.101Z,4.30
2019-06-01T06:16:29.265Z,3.60
2019-06-01T06:18:58.612Z,4.10
2019-06-01T06:21:34.510Z,3.63
2019-06-01T06:24:03.992Z,3.80
2019-06-01T06:26:33.260Z,4.00
2019-06-01T06:29:02.482Z,3.57
2019-06-01T06:31:31.704Z,3.80
2019-06-01T06:34:00.964Z,4.33
2019-06-01T06:36:30.279Z,3.70
2019-06-01T06:38:59.559Z,3.50
2019-06-01T06:41:28.848Z,3.60
2019-06-01T06:44:03.521Z,3.03
2019-06-01T06:46:32.744Z,3.73
2019-06-01T06:49:02.087Z,3.27
2019-06-01T06:51:54.525Z,3.57
2019-06-01T06:54:23.925Z,3.40
2019-06-01T06:56:59.714Z,3.20
2019-06-01T06:59:28.983Z,2.70
2019-06-01T07:01:59.292Z,3.07
2019-06-01T07:04:30.051Z,3.73
2019-06-01T07:06:59.232Z,3.73
2019-06-01T07:09:28.454Z,3.17
2019-06-01T07:11:57.677Z,3.73
2019-06-01T07:14:27.583Z,3.23
2019-06-01T07:16:56.948Z,3.40
2019-06-01T07:19:27.893Z,3.27
2019-06-01T07:21:57.375Z,3.50
2019-06-01T07:24:27.924Z,3.53
2019-06-01T07:26:58.290Z,3.33
2019-06-01T07:29:28.391Z,3.23
2019-06-01T07:31:57.672Z,3.60
2019-06-01T07:34:37.857Z,3.10
2019-06-01T07:36:58.025Z,2.83
2019-06-01T07:39:33.440Z,3.37
2019-06-01T07:42:03.118Z,3.33
2019-06-01T07:44:33.258Z,3.43
2019-06-01T07:47:02.978Z,3.57
2019-06-01T07:49:32.347Z,3.40
2019-06-01T07:52:12.053Z,3.03
2019-06-01T07:54:34.894Z,3.67
2019-06-01T07:57:05.247Z,3.30
2019-06-01T07:59:39.644Z,3.37
2019-06-01T08:02:09.674Z,3.27
2019-06-01T08:04:52.192Z,3.50
2019-06-01T08:07:12.661Z,3.43
2019-06-01T08:09:47.941Z,3.13
2019-06-01T08:12:19.118Z,3.87
2019-06-01T08:14:51.760Z,3.93
2019-06-01T08:17:22.028Z,3.23
2019-06-01T08:19:51.984Z,4.17
2019-06-01T08:22:23.872Z,4.30
2019-06-01T08:24:53.329Z,5.37
2019-06-01T08:27:22.629Z,4.53
2019-06-01T08:29:56.316Z,4.07
2019-06-01T08:32:30.806Z,4.90
2019-06-01T08:35:22.754Z,4.70
2019-06-01T08:37:51.801Z,4.80
2019-06-01T08:40:21.715Z,4.30
2019-06-01T08:42:51.193Z,4.60
2019-06-01T08:45:20.797Z,5.07
2019-06-01T08:47:50.154Z,4.93
2019-06-01T08:50:19.678Z,5.10
2019-06-01T08:52:49.163Z,4.23
2019-06-01T08:55:18.742Z,5.20
2019-06-01T08:57:48.207Z,4.97
2019-06-01T09:00:17.865Z,4.40
2019-06-01T09:02:47.448Z,4.60
2019-06-01T09:05:24.185Z,4.03
2019-06-01T09:07:48.035Z,4.10
2019-06-01T09:10:17.644Z,3.63
2019-06-01T09:12:47.320Z,4.13
2019-06-01T09:15:17.002Z,3.97
2019-06-01T09:17:46.339Z,3.73
2019-06-01T09:20:16.130Z,4.00
2019-06-01T09:22:48.059Z,2.93
2019-06-01T09:25:16.721Z,3.10
2019-06-01T09:27:46.035Z,3.60
2019-06-01T09:30:15.883Z,3.57
2019-06-01T09:32:45.179Z,3.13
2019-06-01T09:35:14.785Z,2.80
2019-06-01T09:37:47.901Z,3.50
2019-06-01T09:40:17.253Z,2.93
2019-06-01T09:42:46.929Z,3.30
2019-06-01T09:45:20.020Z,2.90
2019-06-01T09:47:49.230Z,2.83
2019-06-01T09:50:18.476Z,4.20
2019-06-01T09:52:47.684Z,3.60
2019-06-01T09:55:16.997Z,2.60
2019-06-01T09:57:46.206Z,2.70
2019-06-01T10:00:16.191Z,3.30
2019-06-01T10:02:45.567Z,3.23
2019-06-01T10:05:14.992Z,3.00
2019-06-01T10:07:44.187Z,2.20
2019-06-01T10:10:13.515Z,2.60
2019-06-01T10:12:42.848Z,2.50
2019-06-01T10:15:12.508Z,3.00
2019-06-01T10:17:42.919Z,3.00
2019-06-01T10:20:12.600Z,2.90
2019-06-01T10:22:41.790Z,3.07
2019-06-01T10:25:11.189Z,2.30
2019-06-01T10:27:40.412Z,3.13
2019-06-01T10:30:10.453Z,2.67
2019-06-01T10:32:40.024Z,3.00
2019-06-01T10:35:09.854Z,2.87
2019-06-01T10:37:41.731Z,2.67
2019-06-01T10:40:11.626Z,3.03
2019-06-01T10:42:41.903Z,2.10
2019-06-01T10:45:11.205Z,2.30
2019-06-01T10:47:40.453Z,2.63
2019-06-01T10:50:09.723Z,2.77
2019-06-01T10:52:40.282Z,2.40
2019-06-01T10:55:10.039Z,3.00
2019-06-01T10:57:40.510Z,3.27
2019-06-01T11:00:11.137Z,2.50
2019-06-01T11:02:40.892Z,2.20
2019-06-01T11:05:10.666Z,2.23
2019-06-01T11:07:41.055Z,2.40
2019-06-01T11:10:11.974Z,3.43
2019-06-01T11:12:41.283Z,2.53
2019-06-01T11:15:10.781Z,2.23
2019-06-01T11:17:41.203Z,2.70
2019-06-01T11:20:11.050Z,2.17
2019-06-01T11:22:41.489Z,2.40
2019-06-01T11:25:11.194Z,2.53
2019-06-01T11:27:41.820Z,2.20
2019-06-01T11:30:12.622Z,2.33
2019-06-01T11:32:43.359Z,3.13
2019-06-01T11:35:13.229Z,3.10
2019-06-01T11:37:42.508Z,3.57
2019-06-01T11:40:11.849Z,3.03
2019-06-01T11:42:41.132Z,2.10
2019-06-01T11:45:10.959Z,2.70
2019-06-01T11:47:41.001Z,2.40
2019-06-01T11:50:10.541Z,2.10
2019-06-01T11:52:41.054Z,2.40
2019-06-01T11:55:10.708Z,2.00
2019-06-01T11:57:39.875Z,1.87
2019-06-01T12:00:10.527Z,2.40
2019-06-01T12:02:39.790Z,2.27
2019-06-01T12:05:10.329Z,2.07
2019-06-01T12:07:39.853Z,2.13
2019-06-01T12:10:09.825Z,2.10
2019-06-01T12:12:40.232Z,2.10
2019-06-01T12:15:10.186Z,1.70
2019-06-01T12:17:40.671Z,2.17
2019-06-01T12:20:10.204Z,2.00
2019-06-01T12:22:39.459Z,1.93
2019-06-01T12:25:08.847Z,2.00
2019-06-01T12:27:39.410Z,2.60
2019-06-01T12:30:09.597Z,2.23
2019-06-01T12:32:39.830Z,2.10
2019-06-01T12:35:09.475Z,1.80
2019-06-01T12:37:57.004Z,2.03
2019-06-01T12:40:10.477Z,2.00
2019-06-01T12:42:46.054Z,1.87
2019-06-01T12:45:23.138Z,1.70
2019-06-01T12:47:55.190Z,2.00
2019-06-01T12:50:22.463Z,2.20
2019-06-01T12:52:52.854Z,2.10
2019-06-01T12:55:22.045Z,1.57
2019-06-01T12:57:51.436Z,1.90
2019-06-01T13:00:20.866Z,1.70
2019-06-01T13:03:02.045Z,1.87
2019-06-01T13:05:21.118Z,2.00
2019-06-01T13:07:58.477Z,1.83
2019-06-01T13:10:21.474Z,1.70
2019-06-01T13:12:52.244Z,1.90
2019-06-01T13:15:21.779Z,2.20
2019-06-01T13:17:51.507Z,1.60
2019-06-01T13:20:20.703Z,2.20
2019-06-01T13:22:50.086Z,1.80
2019-06-01T13:25:19.434Z,2.20
2019-06-01T13:27:48.941Z,1.70
2019-06-01T13:30:18.288Z,1.77
2019-06-01T13:32:48.545Z,2.13
2019-06-01T13:35:17.972Z,1.80
2019-06-01T13:37:47.223Z,1.70
2019-06-01T13:40:17.987Z,2.00
2019-06-01T13:42:47.293Z,1.60
2019-06-01T13:45:16.558Z,1.90
2019-06-01T13:47:45.993Z,2.00
2019-06-01T13:50:15.429Z,2.20
2019-06-01T13:52:45.760Z,1.73
2019-06-01T13:55:15.207Z,1.90
2019-06-01T13:57:44.380Z,1.60
2019-06-01T14:00:15.830Z,1.70
2019-06-01T14:02:49.579Z,1.67
2019-06-01T14:05:16.132Z,2.13
2019-06-01T14:07:45.516Z,1.73
2019-06-01T14:10:15.005Z,1.80
2019-06-01T14:12:45.269Z,1.90
2019-06-01T14:15:14.935Z,2.20
2019-06-01T14:17:44.238Z,1.70
2019-06-01T14:20:13.503Z,2.17
2019-06-01T14:22:42.717Z,2.30
2019-06-01T14:25:14.634Z,1.90
2019-06-01T14:27:42.902Z,1.67
2019-06-01T14:30:12.268Z,1.90
2019-06-01T14:32:41.395Z,1.90
2019-06-01T14:35:10.806Z,1.83
2019-06-01T14:37:40.158Z,1.60
2019-06-01T14:40:10.768Z,1.60
2019-06-01T14:42:40.041Z,2.00
2019-06-01T14:45:09.815Z,1.70
2019-06-01T14:47:38.989Z,2.03
2019-06-01T14:50:08.902Z,1.80
2019-06-01T14:52:38.227Z,1.70
2019-06-01T14:55:07.942Z,1.67
2019-06-01T14:57:37.400Z,1.73
2019-06-01T15:00:08.437Z,1.83
2019-06-01T15:02:37.710Z,1.80
2019-06-01T15:05:07.082Z,1.90
2019-06-01T15:07:37.259Z,1.90
2019-06-01T15:10:07.516Z,1.97
2019-06-01T15:12:36.737Z,1.90
2019-06-01T15:15:06.858Z,1.60
2019-06-01T15:17:35.993Z,1.80
2019-06-01T15:20:06.284Z,1.63
2019-06-01T15:22:35.539Z,1.40
2019-06-01T15:25:05.311Z,1.73
2019-06-01T15:27:34.486Z,2.03
2019-06-01T15:30:03.787Z,1.83
2019-06-01T15:32:32.961Z,1.60
2019-06-01T15:35:03.257Z,1.97
2019-06-01T15:37:32.668Z,2.00
2019-06-01T15:40:02.967Z,2.40
2019-06-01T15:42:32.247Z,2.03
2019-06-01T15:45:01.565Z,1.83
2019-06-01T15:47:31.023Z,2.20
2019-06-01T15:50:00.214Z,1.90
2019-06-01T15:52:29.510Z,1.80
2019-06-01T15:54:58.721Z,1.77
2019-06-01T15:57:27.873Z,2.07
2019-06-01T15:59:57.127Z,2.43
2019-06-01T16:02:26.439Z,2.30
2019-06-01T16:04:55.593Z,1.87
2019-06-01T16:07:24.940Z,2.13
2019-06-01T16:09:55.384Z,2.10
2019-06-01T16:12:24.753Z,2.00
2019-06-01T16:14:54.010Z,1.87
2019-06-01T16:17:23.218Z,1.90
2019-06-01T16:19:53.821Z,2.07
2019-06-01T16:22:23.023Z,1.90
2019-06-01T16:24:52.254Z,1.80
2019-06-01T16:27:21.451Z,1.90
2019-06-01T16:29:50.710Z,2.07
2019-06-01T16:32:19.827Z,2.20
2019-06-01T16:34:49.038Z,2.00
2019-06-01T16:37:18.208Z,1.83
2019-06-01T16:39:58.637Z,2.17
2019-06-01T16:42:19.063Z,2.03
2019-06-01T16:44:48.357Z,2.50
2019-06-01T16:47:17.540Z,1.73
2019-06-01T16:49:46.723Z,1.90
2019-06-01T16:52:15.976Z,2.00
2019-06-01T16:54:45.221Z,1.80
2019-06-01T16:57:14.442Z,2.20
2019-06-01T16:59:43.770Z,2.47
2019-06-01T17:02:13.021Z,2.10
2019-06-01T17:04:42.313Z,1.73
2019-06-01T17:07:11.557Z,1.80
2019-06-01T17:09:40.594Z,1.80
2019-06-01T17:12:09.729Z,2.40
2019-06-01T17:14:39.229Z,1.80
2019-06-01T17:17:08.644Z,2.17
2019-06-01T17:19:38.079Z,2.20
2019-06-01T17:22:07.828Z,1.90
2019-06-01T17:24:37.255Z,2.20
2019-06-01T17:27:08.062Z,2.40
2019-06-01T17:29:37.519Z,2.20
2019-06-01T17:32:21.444Z,2.27
2019-06-01T17:34:37.945Z,2.50
2019-06-01T17:37:07.378Z,2.00
2019-06-01T17:39:36.736Z,2.10
2019-06-01T17:42:06.446Z,2.13
2019-06-01T17:44:35.785Z,1.77
2019-06-01T17:47:08.133Z,2.20
2019-06-01T17:49:40.621Z,2.57
2019-06-01T17:52:09.831Z,2.43
2019-06-01T17:54:39.197Z,2.40
2019-06-01T17:57:09.253Z,2.23
2019-06-01T17:59:38.605Z,2.20
2019-06-01T18:02:09.940Z,2.80
2019-06-01T18:04:39.606Z,2.57
2019-06-01T18:07:09.906Z,2.30
2019-06-01T18:09:40.464Z,2.10
2019-06-01T18:12:10.246Z,2.00
2019-06-01T18:14:39.630Z,2.60
2019-06-01T18:17:10.244Z,2.30
2019-06-01T18:19:39.929Z,2.27
2019-06-01T18:22:09.416Z,2.50
2019-06-01T18:24:41.537Z,2.70
2019-06-01T18:27:10.794Z,2.80
2019-06-01T18:29:48.060Z,2.30
2019-06-01T18:32:11.648Z,2.40
2019-06-01T18:34:41.061Z,2.30
2019-06-01T18:37:11.486Z,2.00
2019-06-01T18:39:41.139Z,2.30
2019-06-01T18:42:10.664Z,2.70
2019-06-01T18:44:39.864Z,2.40
2019-06-01T18:47:09.747Z,2.77
2019-06-01T18:49:39.270Z,2.53
2019-06-01T18:52:08.677Z,2.50
2019-06-01T18:54:38.291Z,3.00
2019-06-01T18:57:16.652Z,2.20
2019-06-01T18:59:38.645Z,2.50
2019-06-01T19:02:10.800Z,2.40
2019-06-01T19:04:40.183Z,1.97
2019-06-01T19:07:09.532Z,2.60
2019-06-01T19:09:38.962Z,2.33
2019-06-01T19:12:08.938Z,2.20
2019-06-01T19:14:38.286Z,2.47
2019-06-01T19:17:08.241Z,2.33
2019-06-01T19:19:37.746Z,2.33
2019-06-01T19:22:07.064Z,2.53
2019-06-01T19:24:36.683Z,2.10
2019-06-01T19:27:06.652Z,3.00
2019-06-01T19:29:36.227Z,3.40
2019-06-01T19:32:06.767Z,2.50
2019-06-01T19:34:36.235Z,2.40
2019-06-01T19:37:06.968Z,2.43
2019-06-01T19:39:46.417Z,1.90
2019-06-01T19:42:15.901Z,2.50
2019-06-01T19:44:45.313Z,2.70
2019-06-01T19:47:16.060Z,2.43
2019-06-01T19:49:45.557Z,2.70
2019-06-01T19:52:14.895Z,2.67
2019-06-01T19:54:44.378Z,3.27
2019-06-01T19:57:18.290Z,4.60
2019-06-01T19:59:44.658Z,4.80
2019-06-01T20:02:25.564Z,4.20
2019-06-01T20:04:46.602Z,5.10
2019-06-01T20:07:17.128Z,4.20
2019-06-01T20:09:46.753Z,4.10
2019-06-01T20:12:18.317Z,3.67
2019-06-01T20:14:47.076Z,3.73
2019-06-01T20:17:17.702Z,4.40
2019-06-01T20:19:47.796Z,4.40
2019-06-01T20:22:17.210Z,3.97
2019-06-01T20:24:46.626Z,3.70
2019-06-01T20:27:16.001Z,4.47
2019-06-01T20:29:45.204Z,4.00
2019-06-01T20:32:15.783Z,4.53
2019-06-01T20:34:45.265Z,4.33
2019-06-01T20:37:14.492Z,5.13
2019-06-01T20:39:43.809Z,6.10
2019-06-01T20:42:23.207Z,4.30
2019-06-01T20:44:46.458Z,4.17
2019-06-01T20:47:16.644Z,5.07
2019-06-01T20:49:46.463Z,4.97
2019-06-01T20:52:18.965Z,5.23
2019-06-01T20:54:48.361Z,4.87
2019-06-01T20:57:17.789Z,4.23
2019-06-01T20:59:47.450Z,5.63
2019-06-01T21:02:17.889Z,4.30
2019-06-01T21:04:47.688Z,5.93
2019-06-01T21:07:17.950Z,5.77
2019-06-01T21:09:47.304Z,5.30
2019-06-01T21:12:16.694Z,5.50
2019-06-01T21:14:49.198Z,5.67
2019-06-01T21:17:22.672Z,6.17
2019-06-01T21:19:52.385Z,4.77
2019-06-01T21:22:22.759Z,5.97
2019-06-01T21:24:52.238Z,6.03
2019-06-01T21:27:22.625Z,6.70
2019-06-01T21:29:51.978Z,7.23
2019-06-01T21:32:23.590Z,6.43
2019-06-01T21:34:53.156Z,6.10
2019-06-01T21:37:23.455Z,5.90
2019-06-01T21:39:52.837Z,6.80
2019-06-01T21:42:23.641Z,7.03
2019-06-01T21:44:53.212Z,5.83
2019-06-01T21:47:23.714Z,5.67
2019-06-01T21:49:53.260Z,5.37
2019-06-01T21:52:22.552Z,4.90
2019-06-01T21:54:51.777Z,5.53
2019-06-01T21:57:22.216Z,5.00
2019-06-01T21:59:53.877Z,5.00
2019-06-01T22:02:28.318Z,5.23
2019-06-01T22:04:57.628Z,6.03
2019-06-01T22:07:27.410Z,6.40
2019-06-01T22:09:56.773Z,5.40
2019-06-01T22:12:26.169Z,4.27
2019-06-01T22:14:55.445Z,4.60
2019-06-01T22:17:27.910Z,5.33
2019-06-01T22:19:58.471Z,3.90
2019-06-01T22:22:28.161Z,6.30
2019-06-01T22:24:57.699Z,5.67
2019-06-01T22:27:26.988Z,5.80
2019-06-01T22:29:56.541Z,5.47
2019-06-01T22:32:29.234Z,4.83
2019-06-01T22:34:59.564Z,4.93
2019-06-01T22:37:29.277Z,4.30
2019-06-01T22:39:58.572Z,4.37
2019-06-01T22:42:28.842Z,4.47
2019-06-01T22:44:58.038Z,4.80
2019-06-01T22:47:28.888Z,4.23
2019-06-01T22:49:58.268Z,4.70
2019-06-01T22:52:27.679Z,4.03
2019-06-01T22:54:59.067Z,3.73
2019-06-01T22:57:28.545Z,4.17
2019-06-01T22:59:57.892Z,4.27
2019-06-01T23:02:27.858Z,4.10
2019-06-01T23:04:57.365Z,4.73
2019-06-01T23:07:27.274Z,4.37
2019-06-01T23:09:56.659Z,4.77
2019-06-01T23:12:26.014Z,4.47
2019-06-01T23:14:55.414Z,4.00
2019-06-01T23:17:25.772Z,4.10
2019-06-01T23:19:55.293Z,4.70
2019-06-01T23:22:26.020Z,4.27
2019-06-01T23:24:56.394Z,3.70
2019-06-01T23:27:26.175Z,4.40
2019-06-01T23:29:55.539Z,3.80
2019-06-01T23:32:24.783Z,4.17
2019-06-01T23:34:54.056Z,4.93
2019-06-01T23:37:24.739Z,3.97
2019-06-01T23:39:57.299Z,5.07
2019-06-01T23:42:26.867Z,3.80
2019-06-01T23:44:56.169Z,3.70
2019-06-01T23:47:25.696Z,5.00
2019-06-01T23:49:55.089Z,4.40
2019-06-01T23:52:25.485Z,3.80
2019-06-01T23:54:54.853Z,3.83
2019-06-01T23:57:24.052Z,4.13
2019-06-01T23:59:53.298Z,4.50
